sensor_id;sensor_type;location;lat;lon;timestamp;temperature;humidity
60027;DHT22;45891;53.006;6.512;2023-07-28T00:02:23;17.90;99.90
60027;DHT22;45891;53.006;6.512;2023-07-28T00:04:49;17.90;99.90
60027;DHT22;45891;53.006;6.512;2023-07-28T00:07:15;17.90;99.90
60027;DHT22;45891;53.006;6.512;2023-07-28T00:09:41;17.90;99.90
60027;DHT22;45891;53.006;6.512;2023-07-28T00:12:08;17.90;99.90
60027;DHT22;45891;53.006;6.512;2023-07-28T00:14:34;17.90;99.90
60027;DHT22;45891;53.006;6.512;2023-07-28T00:17:00;17.90;99.90
60027;DHT22;45891;53.006;6.512;2023-07-28T00:19:26;17.90;99.90
60027;DHT22;45891;53.006;6.512;2023-07-28T00:21:53;17.90;99.90
60027;DHT22;45891;53.006;6.512;2023-07-28T00:24:19;17.90;99.90
60027;DHT22;45891;53.006;6.512;2023-07-28T00:26:45;17.90;99.90
60027;DHT22;45891;53.006;6.512;2023-07-28T00:29:11;17.90;99.90
60027;DHT22;45891;53.006;6.512;2023-07-28T00:31:37;17.90;99.90
60027;DHT22;45891;53.006;6.512;2023-07-28T00:34:04;17.90;99.90
60027;DHT22;45891;53.006;6.512;2023-07-28T00:36:33;17.90;99.90
60027;DHT22;45891;53.006;6.512;2023-07-28T00:38:59;18.00;99.90
60027;DHT22;45891;53.006;6.512;2023-07-28T00:41:25;17.90;99.90
60027;DHT22;45891;53.006;6.512;2023-07-28T00:43:51;17.90;99.90
60027;DHT22;45891;53.006;6.512;2023-07-28T00:46:17;17.90;99.90
60027;DHT22;45891;53.006;6.512;2023-07-28T00:48:44;17.90;99.90
60027;DHT22;45891;53.006;6.512;2023-07-28T00:51:11;17.90;99.90
60027;DHT22;45891;53.006;6.512;2023-07-28T00:53:37;17.90;99.90
60027;DHT22;45891;53.006;6.512;2023-07-28T00:56:04;18.00;99.90
60027;DHT22;45891;53.006;6.512;2023-07-28T00:58:31;17.90;99.90
60027;DHT22;45891;53.006;6.512;2023-07-28T01:00:57;17.90;99.90
60027;DHT22;45891;53.006;6.512;2023-07-28T01:03:24;17.90;99.90
60027;DHT22;45891;53.006;6.512;2023-07-28T01:06:20;18.00;99.90
60027;DHT22;45891;53.006;6.512;2023-07-28T01:09:02;17.90;99.90
60027;DHT22;45891;53.006;6.512;2023-07-28T01:11:31;17.90;99.90
60027;DHT22;45891;53.006;6.512;2023-07-28T01:13:57;17.90;99.90
60027;DHT22;45891;53.006;6.512;2023-07-28T01:16:24;17.90;99.90
60027;DHT22;45891;53.006;6.512;2023-07-28T01:18:50;17.90;99.90
60027;DHT22;45891;53.006;6.512;2023-07-28T01:21:28;18.00;99.90
60027;DHT22;45891;53.006;6.512;2023-07-28T01:24:05;17.90;99.90
60027;DHT22;45891;53.006;6.512;2023-07-28T01:26:36;17.90;99.90
60027;DHT22;45891;53.006;6.512;2023-07-28T01:29:03;17.90;99.90
60027;DHT22;45891;53.006;6.512;2023-07-28T01:31:30;17.90;99.90
60027;DHT22;45891;53.006;6.512;2023-07-28T01:33:56;17.90;99.90
60027;DHT22;45891;53.006;6.512;2023-07-28T01:36:22;17.90;99.90
60027;DHT22;45891;53.006;6.512;2023-07-28T01:38:48;18.00;99.90
60027;DHT22;45891;53.006;6.512;2023-07-28T01:41:14;17.90;99.90
60027;DHT22;45891;53.006;6.512;2023-07-28T01:43:40;17.90;99.90
60027;DHT22;45891;53.006;6.512;2023-07-28T01:46:08;17.90;99.90
60027;DHT22;45891;53.006;6.512;2023-07-28T01:48:34;17.90;99.90
60027;DHT22;45891;53.006;6.512;2023-07-28T01:51:00;17.90;99.90
60027;DHT22;45891;53.006;6.512;2023-07-28T01:53:26;17.90;99.90
60027;DHT22;45891;53.006;6.512;2023-07-28T01:55:52;17.90;99.90
60027;DHT22;45891;53.006;6.512;2023-07-28T01:58:19;17.90;99.90
60027;DHT22;45891;53.006;6.512;2023-07-28T02:00:45;18.00;99.90
60027;DHT22;45891;53.006;6.512;2023-07-28T02:03:12;17.90;99.90
60027;DHT22;45891;53.006;6.512;2023-07-28T02:05:38;17.90;99.90
60027;DHT22;45891;53.006;6.512;2023-07-28T02:08:04;17.90;99.90
60027;DHT22;45891;53.006;6.512;2023-07-28T02:10:30;17.90;99.90
60027;DHT22;45891;53.006;6.512;2023-07-28T02:12:56;17.90;99.90
60027;DHT22;45891;53.006;6.512;2023-07-28T02:15:23;17.90;99.90
60027;DHT22;45891;53.006;6.512;2023-07-28T02:17:49;17.90;99.90
60027;DHT22;45891;53.006;6.512;2023-07-28T02:20:15;17.90;99.90
60027;DHT22;45891;53.006;6.512;2023-07-28T02:22:42;17.90;99.90
60027;DHT22;45891;53.006;6.512;2023-07-28T02:25:09;17.90;99.90
60027;DHT22;45891;53.006;6.512;2023-07-28T02:27:39;17.90;99.90
60027;DHT22;45891;53.006;6.512;2023-07-28T02:30:06;18.00;99.90
60027;DHT22;45891;53.006;6.512;2023-07-28T02:32:33;17.90;99.90
60027;DHT22;45891;53.006;6.512;2023-07-28T02:34:59;17.90;99.90
60027;DHT22;45891;53.006;6.512;2023-07-28T02:37:25;18.00;99.90
60027;DHT22;45891;53.006;6.512;2023-07-28T02:39:51;17.90;99.90
60027;DHT22;45891;53.006;6.512;2023-07-28T02:42:17;17.90;99.90
60027;DHT22;45891;53.006;6.512;2023-07-28T02:44:43;18.00;99.90
60027;DHT22;45891;53.006;6.512;2023-07-28T02:47:10;18.00;99.90
60027;DHT22;45891;53.006;6.512;2023-07-28T02:49:36;18.00;99.90
60027;DHT22;45891;53.006;6.512;2023-07-28T02:52:02;18.00;99.90
60027;DHT22;45891;53.006;6.512;2023-07-28T02:54:29;18.00;99.90
60027;DHT22;45891;53.006;6.512;2023-07-28T02:56:55;18.00;99.90
60027;DHT22;45891;53.006;6.512;2023-07-28T02:59:21;18.00;99.90
60027;DHT22;45891;53.006;6.512;2023-07-28T03:01:49;18.00;99.90
60027;DHT22;45891;53.006;6.512;2023-07-28T03:04:18;17.90;99.90
60027;DHT22;45891;53.006;6.512;2023-07-28T03:06:46;18.00;99.90
60027;DHT22;45891;53.006;6.512;2023-07-28T03:09:13;18.00;99.90
60027;DHT22;45891;53.006;6.512;2023-07-28T03:11:46;17.90;99.90
60027;DHT22;45891;53.006;6.512;2023-07-28T03:14:13;18.00;99.90
60027;DHT22;45891;53.006;6.512;2023-07-28T03:16:42;17.90;99.90
60027;DHT22;45891;53.006;6.512;2023-07-28T03:19:08;17.90;99.90
60027;DHT22;45891;53.006;6.512;2023-07-28T03:21:34;18.00;99.90
60027;DHT22;45891;53.006;6.512;2023-07-28T03:24:00;18.00;99.90
60027;DHT22;45891;53.006;6.512;2023-07-28T03:26:26;18.00;99.90
60027;DHT22;45891;53.006;6.512;2023-07-28T03:28:52;18.00;99.90
60027;DHT22;45891;53.006;6.512;2023-07-28T03:31:18;17.90;99.90
60027;DHT22;45891;53.006;6.512;2023-07-28T03:33:44;17.90;99.90
60027;DHT22;45891;53.006;6.512;2023-07-28T03:36:11;17.90;99.90
60027;DHT22;45891;53.006;6.512;2023-07-28T03:38:37;17.90;99.90
60027;DHT22;45891;53.006;6.512;2023-07-28T03:41:03;17.90;99.90
60027;DHT22;45891;53.006;6.512;2023-07-28T03:43:30;17.90;99.90
60027;DHT22;45891;53.006;6.512;2023-07-28T03:45:56;17.90;99.90
60027;DHT22;45891;53.006;6.512;2023-07-28T03:48:22;17.90;99.90
60027;DHT22;45891;53.006;6.512;2023-07-28T03:50:48;17.90;99.90
60027;DHT22;45891;53.006;6.512;2023-07-28T03:53:15;17.90;99.90
60027;DHT22;45891;53.006;6.512;2023-07-28T03:55:41;17.90;99.90
60027;DHT22;45891;53.006;6.512;2023-07-28T03:58:07;17.90;99.90
60027;DHT22;45891;53.006;6.512;2023-07-28T04:00:33;17.90;99.90
60027;DHT22;45891;53.006;6.512;2023-07-28T04:02:59;17.90;99.90
60027;DHT22;45891;53.006;6.512;2023-07-28T04:05:25;17.90;99.90
60027;DHT22;45891;53.006;6.512;2023-07-28T04:07:51;17.90;99.90
60027;DHT22;45891;53.006;6.512;2023-07-28T04:10:17;17.90;99.90
60027;DHT22;45891;53.006;6.512;2023-07-28T04:12:43;17.90;99.90
60027;DHT22;45891;53.006;6.512;2023-07-28T04:15:10;17.90;99.90
60027;DHT22;45891;53.006;6.512;2023-07-28T04:17:36;17.90;99.90
60027;DHT22;45891;53.006;6.512;2023-07-28T04:20:02;18.00;99.90
60027;DHT22;45891;53.006;6.512;2023-07-28T04:22:28;17.90;99.90
60027;DHT22;45891;53.006;6.512;2023-07-28T04:24:54;17.90;99.90
60027;DHT22;45891;53.006;6.512;2023-07-28T04:27:20;17.90;99.90
60027;DHT22;45891;53.006;6.512;2023-07-28T04:29:46;18.00;99.90
60027;DHT22;45891;53.006;6.512;2023-07-28T04:32:13;18.00;99.90
60027;DHT22;45891;53.006;6.512;2023-07-28T04:34:39;18.00;99.90
60027;DHT22;45891;53.006;6.512;2023-07-28T04:37:05;18.00;99.90
60027;DHT22;45891;53.006;6.512;2023-07-28T04:39:31;18.00;99.90
60027;DHT22;45891;53.006;6.512;2023-07-28T04:41:57;18.00;99.90
60027;DHT22;45891;53.006;6.512;2023-07-28T04:44:23;18.00;99.90
60027;DHT22;45891;53.006;6.512;2023-07-28T04:46:49;18.00;99.90
60027;DHT22;45891;53.006;6.512;2023-07-28T04:49:15;18.00;99.90
60027;DHT22;45891;53.006;6.512;2023-07-28T04:51:42;18.10;99.90
60027;DHT22;45891;53.006;6.512;2023-07-28T04:54:08;18.10;99.90
60027;DHT22;45891;53.006;6.512;2023-07-28T04:56:34;18.10;99.90
60027;DHT22;45891;53.006;6.512;2023-07-28T04:59:00;18.10;99.90
60027;DHT22;45891;53.006;6.512;2023-07-28T05:01:26;18.10;99.90
60027;DHT22;45891;53.006;6.512;2023-07-28T05:03:52;18.10;99.90
60027;DHT22;45891;53.006;6.512;2023-07-28T05:06:18;18.10;99.90
60027;DHT22;45891;53.006;6.512;2023-07-28T05:08:44;18.10;99.90
60027;DHT22;45891;53.006;6.512;2023-07-28T05:11:10;18.10;99.90
60027;DHT22;45891;53.006;6.512;2023-07-28T05:13:37;18.10;99.90
60027;DHT22;45891;53.006;6.512;2023-07-28T05:16:03;18.20;99.90
60027;DHT22;45891;53.006;6.512;2023-07-28T05:18:29;18.20;99.90
60027;DHT22;45891;53.006;6.512;2023-07-28T05:20:55;18.20;99.90
60027;DHT22;45891;53.006;6.512;2023-07-28T05:23:21;18.20;99.90
60027;DHT22;45891;53.006;6.512;2023-07-28T05:25:47;18.20;99.90
60027;DHT22;45891;53.006;6.512;2023-07-28T05:28:13;18.20;99.90
60027;DHT22;45891;53.006;6.512;2023-07-28T05:30:39;18.20;99.90
60027;DHT22;45891;53.006;6.512;2023-07-28T05:33:05;18.20;99.90
60027;DHT22;45891;53.006;6.512;2023-07-28T05:35:32;18.30;99.90
60027;DHT22;45891;53.006;6.512;2023-07-28T05:37:58;18.30;99.90
60027;DHT22;45891;53.006;6.512;2023-07-28T05:40:24;18.30;99.90
60027;DHT22;45891;53.006;6.512;2023-07-28T05:42:50;18.30;99.90
60027;DHT22;45891;53.006;6.512;2023-07-28T05:45:16;18.30;99.90
60027;DHT22;45891;53.006;6.512;2023-07-28T05:47:42;18.40;99.90
60027;DHT22;45891;53.006;6.512;2023-07-28T05:50:08;18.40;99.90
60027;DHT22;45891;53.006;6.512;2023-07-28T05:52:35;18.40;99.90
60027;DHT22;45891;53.006;6.512;2023-07-28T05:55:01;18.50;99.90
60027;DHT22;45891;53.006;6.512;2023-07-28T05:57:27;18.50;99.90
60027;DHT22;45891;53.006;6.512;2023-07-28T05:59:53;18.50;99.90
60027;DHT22;45891;53.006;6.512;2023-07-28T06:02:19;18.50;99.90
60027;DHT22;45891;53.006;6.512;2023-07-28T06:04:45;18.50;99.90
60027;DHT22;45891;53.006;6.512;2023-07-28T06:07:12;18.60;99.90
60027;DHT22;45891;53.006;6.512;2023-07-28T06:09:38;18.60;99.90
60027;DHT22;45891;53.006;6.512;2023-07-28T06:12:04;18.60;99.90
60027;DHT22;45891;53.006;6.512;2023-07-28T06:14:31;18.70;99.90
60027;DHT22;45891;53.006;6.512;2023-07-28T06:16:57;18.70;99.90
60027;DHT22;45891;53.006;6.512;2023-07-28T06:19:23;18.70;99.90
60027;DHT22;45891;53.006;6.512;2023-07-28T06:21:50;18.80;99.90
60027;DHT22;45891;53.006;6.512;2023-07-28T06:24:17;18.80;99.90
60027;DHT22;45891;53.006;6.512;2023-07-28T06:26:43;18.80;99.90
60027;DHT22;45891;53.006;6.512;2023-07-28T06:29:09;18.80;99.90
60027;DHT22;45891;53.006;6.512;2023-07-28T06:31:35;18.80;99.90
60027;DHT22;45891;53.006;6.512;2023-07-28T06:34:01;18.90;99.90
60027;DHT22;45891;53.006;6.512;2023-07-28T06:36:27;18.90;99.90
60027;DHT22;45891;53.006;6.512;2023-07-28T06:38:54;18.90;99.90
60027;DHT22;45891;53.006;6.512;2023-07-28T06:41:21;18.90;99.90
60027;DHT22;45891;53.006;6.512;2023-07-28T06:43:48;18.90;99.90
60027;DHT22;45891;53.006;6.512;2023-07-28T06:46:16;19.00;99.90
60027;DHT22;45891;53.006;6.512;2023-07-28T06:48:43;19.00;99.90
60027;DHT22;45891;53.006;6.512;2023-07-28T06:51:09;19.10;99.90
60027;DHT22;45891;53.006;6.512;2023-07-28T06:53:35;19.10;99.90
60027;DHT22;45891;53.006;6.512;2023-07-28T06:56:01;19.30;99.90
60027;DHT22;45891;53.006;6.512;2023-07-28T06:58:27;19.30;99.90
60027;DHT22;45891;53.006;6.512;2023-07-28T07:00:53;19.40;99.90
60027;DHT22;45891;53.006;6.512;2023-07-28T07:03:22;19.60;99.90
60027;DHT22;45891;53.006;6.512;2023-07-28T07:05:49;19.60;99.90
60027;DHT22;45891;53.006;6.512;2023-07-28T07:08:15;19.70;99.90
60027;DHT22;45891;53.006;6.512;2023-07-28T07:10:49;19.60;99.90
60027;DHT22;45891;53.006;6.512;2023-07-28T07:13:19;19.60;99.90
60027;DHT22;45891;53.006;6.512;2023-07-28T07:15:45;19.70;99.90
60027;DHT22;45891;53.006;6.512;2023-07-28T07:18:11;19.60;99.90
60027;DHT22;45891;53.006;6.512;2023-07-28T07:20:38;19.60;99.90
60027;DHT22;45891;53.006;6.512;2023-07-28T07:23:04;19.90;99.90
60027;DHT22;45891;53.006;6.512;2023-07-28T07:25:31;20.20;99.90
60027;DHT22;45891;53.006;6.512;2023-07-28T07:27:57;20.20;99.90
60027;DHT22;45891;53.006;6.512;2023-07-28T07:30:23;20.20;99.90
60027;DHT22;45891;53.006;6.512;2023-07-28T07:32:50;20.10;99.90
60027;DHT22;45891;53.006;6.512;2023-07-28T07:35:16;20.60;99.90
60027;DHT22;45891;53.006;6.512;2023-07-28T07:37:42;20.50;99.90
60027;DHT22;45891;53.006;6.512;2023-07-28T07:40:09;20.40;99.90
60027;DHT22;45891;53.006;6.512;2023-07-28T07:42:48;20.50;99.90
60027;DHT22;45891;53.006;6.512;2023-07-28T07:45:15;20.70;99.90
60027;DHT22;45891;53.006;6.512;2023-07-28T07:47:42;21.00;99.90
60027;DHT22;45891;53.006;6.512;2023-07-28T07:50:10;20.90;99.90
60027;DHT22;45891;53.006;6.512;2023-07-28T07:52:36;21.10;99.90
60027;DHT22;45891;53.006;6.512;2023-07-28T07:55:03;21.40;99.90
60027;DHT22;45891;53.006;6.512;2023-07-28T07:57:30;21.60;99.90
60027;DHT22;45891;53.006;6.512;2023-07-28T07:59:58;22.00;99.90
60027;DHT22;45891;53.006;6.512;2023-07-28T08:02:24;21.80;99.90
60027;DHT22;45891;53.006;6.512;2023-07-28T08:04:52;21.80;99.90
60027;DHT22;45891;53.006;6.512;2023-07-28T08:07:20;21.80;99.90
60027;DHT22;45891;53.006;6.512;2023-07-28T08:09:46;21.90;99.90
60027;DHT22;45891;53.006;6.512;2023-07-28T08:12:13;21.90;99.90
60027;DHT22;45891;53.006;6.512;2023-07-28T08:14:40;21.70;99.90
60027;DHT22;45891;53.006;6.512;2023-07-28T08:17:06;21.60;99.90
60027;DHT22;45891;53.006;6.512;2023-07-28T08:19:33;22.00;99.90
60027;DHT22;45891;53.006;6.512;2023-07-28T08:21:59;22.40;99.90
60027;DHT22;45891;53.006;6.512;2023-07-28T08:24:25;22.60;99.90
60027;DHT22;45891;53.006;6.512;2023-07-28T08:26:51;22.50;99.90
60027;DHT22;45891;53.006;6.512;2023-07-28T08:29:17;23.00;99.90
60027;DHT22;45891;53.006;6.512;2023-07-28T08:31:43;23.30;99.90
60027;DHT22;45891;53.006;6.512;2023-07-28T08:34:09;23.50;99.90
60027;DHT22;45891;53.006;6.512;2023-07-28T08:36:35;23.70;99.90
60027;DHT22;45891;53.006;6.512;2023-07-28T08:39:01;23.90;99.90
60027;DHT22;45891;53.006;6.512;2023-07-28T08:41:28;23.90;99.90
60027;DHT22;45891;53.006;6.512;2023-07-28T08:43:54;23.80;99.90
60027;DHT22;45891;53.006;6.512;2023-07-28T08:46:20;24.10;99.90
60027;DHT22;45891;53.006;6.512;2023-07-28T08:48:47;23.70;99.90
60027;DHT22;45891;53.006;6.512;2023-07-28T08:51:13;23.30;99.90
60027;DHT22;45891;53.006;6.512;2023-07-28T08:53:40;23.50;99.90
60027;DHT22;45891;53.006;6.512;2023-07-28T08:56:06;23.20;99.90
60027;DHT22;45891;53.006;6.512;2023-07-28T08:58:33;22.90;99.90
60027;DHT22;45891;53.006;6.512;2023-07-28T09:00:59;23.40;99.90
60027;DHT22;45891;53.006;6.512;2023-07-28T09:03:29;24.20;99.90
60027;DHT22;45891;53.006;6.512;2023-07-28T09:06:00;24.70;99.90
60027;DHT22;45891;53.006;6.512;2023-07-28T09:08:27;24.90;99.90
60027;DHT22;45891;53.006;6.512;2023-07-28T09:10:53;24.20;99.90
60027;DHT22;45891;53.006;6.512;2023-07-28T09:13:20;24.30;99.90
60027;DHT22;45891;53.006;6.512;2023-07-28T09:15:46;24.40;99.90
60027;DHT22;45891;53.006;6.512;2023-07-28T09:18:15;24.20;99.90
60027;DHT22;45891;53.006;6.512;2023-07-28T09:20:41;23.90;99.90
60027;DHT22;45891;53.006;6.512;2023-07-28T09:23:09;24.00;99.90
60027;DHT22;45891;53.006;6.512;2023-07-28T09:25:36;23.60;99.90
60027;DHT22;45891;53.006;6.512;2023-07-28T09:28:03;23.50;99.90
60027;DHT22;45891;53.006;6.512;2023-07-28T09:30:45;23.30;99.90
60027;DHT22;45891;53.006;6.512;2023-07-28T09:33:11;23.20;99.90
60027;DHT22;45891;53.006;6.512;2023-07-28T09:35:48;23.10;99.90
60027;DHT22;45891;53.006;6.512;2023-07-28T09:38:15;23.10;99.90
60027;DHT22;45891;53.006;6.512;2023-07-28T09:40:42;23.00;99.90
60027;DHT22;45891;53.006;6.512;2023-07-28T09:43:09;22.80;99.90
60027;DHT22;45891;53.006;6.512;2023-07-28T09:45:36;22.70;99.90
60027;DHT22;45891;53.006;6.512;2023-07-28T09:48:05;22.50;99.90
60027;DHT22;45891;53.006;6.512;2023-07-28T09:50:35;22.70;99.90
60027;DHT22;45891;53.006;6.512;2023-07-28T09:53:02;22.80;99.90
60027;DHT22;45891;53.006;6.512;2023-07-28T09:55:29;23.50;99.90
60027;DHT22;45891;53.006;6.512;2023-07-28T09:57:58;23.40;99.90
60027;DHT22;45891;53.006;6.512;2023-07-28T10:00:27;23.20;99.90
60027;DHT22;45891;53.006;6.512;2023-07-28T10:02:55;23.00;99.90
60027;DHT22;45891;53.006;6.512;2023-07-28T10:05:22;23.90;99.90
60027;DHT22;45891;53.006;6.512;2023-07-28T10:07:50;24.00;99.90
60027;DHT22;45891;53.006;6.512;2023-07-28T10:10:17;23.90;99.90
60027;DHT22;45891;53.006;6.512;2023-07-28T10:12:48;23.70;99.90
60027;DHT22;45891;53.006;6.512;2023-07-28T10:15:17;23.80;99.90
60027;DHT22;45891;53.006;6.512;2023-07-28T10:17:45;24.30;99.90
60027;DHT22;45891;53.006;6.512;2023-07-28T10:20:43;24.50;99.90
60027;DHT22;45891;53.006;6.512;2023-07-28T10:23:14;25.20;99.90
60027;DHT22;45891;53.006;6.512;2023-07-28T10:25:42;24.90;99.90
60027;DHT22;45891;53.006;6.512;2023-07-28T10:28:26;24.30;99.90
60027;DHT22;45891;53.006;6.512;2023-07-28T10:30:55;24.00;99.90
60027;DHT22;45891;53.006;6.512;2023-07-28T10:35:58;24.30;99.90
60027;DHT22;45891;53.006;6.512;2023-07-28T10:38:29;24.70;99.90
60027;DHT22;45891;53.006;6.512;2023-07-28T10:41:08;25.40;99.90
60027;DHT22;45891;53.006;6.512;2023-07-28T10:43:34;26.00;99.90
60027;DHT22;45891;53.006;6.512;2023-07-28T10:46:01;25.70;99.90
60027;DHT22;45891;53.006;6.512;2023-07-28T10:48:27;25.50;99.90
60027;DHT22;45891;53.006;6.512;2023-07-28T10:50:53;25.50;99.90
60027;DHT22;45891;53.006;6.512;2023-07-28T10:53:19;25.90;99.90
60027;DHT22;45891;53.006;6.512;2023-07-28T10:55:45;26.30;99.90
60027;DHT22;45891;53.006;6.512;2023-07-28T10:58:11;26.30;99.90
60027;DHT22;45891;53.006;6.512;2023-07-28T11:00:37;26.30;99.90
60027;DHT22;45891;53.006;6.512;2023-07-28T11:03:03;26.50;99.90
60027;DHT22;45891;53.006;6.512;2023-07-28T11:05:30;26.70;99.90
60027;DHT22;45891;53.006;6.512;2023-07-28T11:08:00;26.80;99.90
60027;DHT22;45891;53.006;6.512;2023-07-28T11:10:31;26.70;99.90
60027;DHT22;45891;53.006;6.512;2023-07-28T11:13:00;26.40;99.90
60027;DHT22;45891;53.006;6.512;2023-07-28T11:15:26;26.40;99.90
60027;DHT22;45891;53.006;6.512;2023-07-28T11:17:53;26.40;99.90
60027;DHT22;45891;53.006;6.512;2023-07-28T11:20:25;26.50;99.90
60027;DHT22;45891;53.006;6.512;2023-07-28T11:22:52;26.80;99.90
60027;DHT22;45891;53.006;6.512;2023-07-28T11:25:19;26.90;99.90
60027;DHT22;45891;53.006;6.512;2023-07-28T11:27:47;26.80;99.90
60027;DHT22;45891;53.006;6.512;2023-07-28T11:30:15;26.60;99.90
60027;DHT22;45891;53.006;6.512;2023-07-28T11:32:46;26.80;99.90
60027;DHT22;45891;53.006;6.512;2023-07-28T11:35:14;27.40;99.90
60027;DHT22;45891;53.006;6.512;2023-07-28T11:37:42;27.40;99.90
60027;DHT22;45891;53.006;6.512;2023-07-28T11:40:10;27.10;99.90
60027;DHT22;45891;53.006;6.512;2023-07-28T11:42:54;26.60;99.90
60027;DHT22;45891;53.006;6.512;2023-07-28T11:45:21;26.00;99.90
60027;DHT22;45891;53.006;6.512;2023-07-28T11:48:05;25.90;99.90
60027;DHT22;45891;53.006;6.512;2023-07-28T11:50:37;26.20;99.90
60027;DHT22;45891;53.006;6.512;2023-07-28T11:53:04;25.90;99.90
60027;DHT22;45891;53.006;6.512;2023-07-28T11:55:33;25.90;99.90
60027;DHT22;45891;53.006;6.512;2023-07-28T11:58:00;25.70;99.90
60027;DHT22;45891;53.006;6.512;2023-07-28T12:00:31;25.40;99.90
60027;DHT22;45891;53.006;6.512;2023-07-28T12:03:04;25.30;99.90
60027;DHT22;45891;53.006;6.512;2023-07-28T12:05:31;25.40;99.90
60027;DHT22;45891;53.006;6.512;2023-07-28T12:07:59;25.30;99.90
60027;DHT22;45891;53.006;6.512;2023-07-28T12:10:25;25.30;99.90
60027;DHT22;45891;53.006;6.512;2023-07-28T12:12:51;25.00;99.90
60027;DHT22;45891;53.006;6.512;2023-07-28T12:15:21;25.20;99.90
60027;DHT22;45891;53.006;6.512;2023-07-28T12:18:20;25.60;99.90
60027;DHT22;45891;53.006;6.512;2023-07-28T12:20:48;25.60;99.90
60027;DHT22;45891;53.006;6.512;2023-07-28T12:23:20;25.60;99.90
60027;DHT22;45891;53.006;6.512;2023-07-28T12:25:47;25.80;99.90
60027;DHT22;45891;53.006;6.512;2023-07-28T12:28:13;25.90;99.90
60027;DHT22;45891;53.006;6.512;2023-07-28T12:30:40;25.90;99.90
60027;DHT22;45891;53.006;6.512;2023-07-28T12:33:06;25.90;99.90
60027;DHT22;45891;53.006;6.512;2023-07-28T12:35:33;25.70;99.90
60027;DHT22;45891;53.006;6.512;2023-07-28T12:38:06;25.60;99.90
60027;DHT22;45891;53.006;6.512;2023-07-28T12:40:33;25.20;99.90
60027;DHT22;45891;53.006;6.512;2023-07-28T12:43:02;25.10;99.90
60027;DHT22;45891;53.006;6.512;2023-07-28T12:45:28;25.60;99.90
60027;DHT22;45891;53.006;6.512;2023-07-28T12:47:55;26.00;99.90
60027;DHT22;45891;53.006;6.512;2023-07-28T12:50:24;26.30;99.90
60027;DHT22;45891;53.006;6.512;2023-07-28T12:52:50;26.10;99.90
60027;DHT22;45891;53.006;6.512;2023-07-28T12:55:18;26.00;99.90
60027;DHT22;45891;53.006;6.512;2023-07-28T12:57:44;26.20;99.90
60027;DHT22;45891;53.006;6.512;2023-07-28T13:00:11;26.20;99.90
60027;DHT22;45891;53.006;6.512;2023-07-28T13:02:43;26.70;99.90
60027;DHT22;45891;53.006;6.512;2023-07-28T13:05:10;26.90;99.90
60027;DHT22;45891;53.006;6.512;2023-07-28T13:07:37;26.60;99.90
60027;DHT22;45891;53.006;6.512;2023-07-28T13:10:07;26.70;99.90
60027;DHT22;45891;53.006;6.512;2023-07-28T13:12:35;26.40;99.90
60027;DHT22;45891;53.006;6.512;2023-07-28T13:15:02;26.30;99.90
60027;DHT22;45891;53.006;6.512;2023-07-28T13:17:28;26.10;99.90
60027;DHT22;45891;53.006;6.512;2023-07-28T13:19:54;26.30;99.90
60027;DHT22;45891;53.006;6.512;2023-07-28T13:22:23;26.60;99.90
60027;DHT22;45891;53.006;6.512;2023-07-28T13:24:49;27.10;99.90
60027;DHT22;45891;53.006;6.512;2023-07-28T13:27:15;27.50;99.90
60027;DHT22;45891;53.006;6.512;2023-07-28T13:29:42;27.30;99.30
60027;DHT22;45891;53.006;6.512;2023-07-28T13:32:18;26.90;99.80
60027;DHT22;45891;53.006;6.512;2023-07-28T13:34:48;27.40;99.90
60027;DHT22;45891;53.006;6.512;2023-07-28T13:37:14;27.90;99.90
60027;DHT22;45891;53.006;6.512;2023-07-28T13:39:41;28.00;99.30
60027;DHT22;45891;53.006;6.512;2023-07-28T13:42:08;28.40;99.20
60027;DHT22;45891;53.006;6.512;2023-07-28T13:44:34;28.00;99.90
60027;DHT22;45891;53.006;6.512;2023-07-28T13:47:00;27.90;99.60
60027;DHT22;45891;53.006;6.512;2023-07-28T13:49:26;27.70;99.90
60027;DHT22;45891;53.006;6.512;2023-07-28T13:51:52;27.40;99.90
60027;DHT22;45891;53.006;6.512;2023-07-28T13:54:18;27.60;99.90
60027;DHT22;45891;53.006;6.512;2023-07-28T13:56:45;27.70;99.90
60027;DHT22;45891;53.006;6.512;2023-07-28T13:59:13;28.00;99.90
60027;DHT22;45891;53.006;6.512;2023-07-28T14:01:39;28.00;99.40
60027;DHT22;45891;53.006;6.512;2023-07-28T14:04:05;28.10;98.70
60027;DHT22;45891;53.006;6.512;2023-07-28T14:06:32;28.40;98.90
60027;DHT22;45891;53.006;6.512;2023-07-28T14:08:58;28.20;98.40
60027;DHT22;45891;53.006;6.512;2023-07-28T14:11:24;27.80;99.10
60027;DHT22;45891;53.006;6.512;2023-07-28T14:13:50;28.20;98.50
60027;DHT22;45891;53.006;6.512;2023-07-28T14:16:16;28.10;98.60
60027;DHT22;45891;53.006;6.512;2023-07-28T14:18:42;27.70;99.10
60027;DHT22;45891;53.006;6.512;2023-07-28T14:21:08;27.50;99.80
60027;DHT22;45891;53.006;6.512;2023-07-28T14:23:35;27.90;99.00
60027;DHT22;45891;53.006;6.512;2023-07-28T14:26:01;27.80;98.90
60027;DHT22;45891;53.006;6.512;2023-07-28T14:28:27;27.80;98.90
60027;DHT22;45891;53.006;6.512;2023-07-28T14:30:54;28.10;98.40
60027;DHT22;45891;53.006;6.512;2023-07-28T14:33:20;27.90;99.30
60027;DHT22;45891;53.006;6.512;2023-07-28T14:35:48;27.50;99.80
60027;DHT22;45891;53.006;6.512;2023-07-28T14:38:14;27.80;99.50
60027;DHT22;45891;53.006;6.512;2023-07-28T14:40:41;27.80;99.50
60027;DHT22;45891;53.006;6.512;2023-07-28T14:43:07;28.10;99.40
60027;DHT22;45891;53.006;6.512;2023-07-28T14:45:33;28.60;98.40
60027;DHT22;45891;53.006;6.512;2023-07-28T14:47:59;28.10;98.40
60027;DHT22;45891;53.006;6.512;2023-07-28T14:50:26;27.70;98.90
60027;DHT22;45891;53.006;6.512;2023-07-28T14:52:53;27.40;98.60
60027;DHT22;45891;53.006;6.512;2023-07-28T14:55:19;27.50;99.40
60027;DHT22;45891;53.006;6.512;2023-07-28T14:57:45;27.80;99.00
60027;DHT22;45891;53.006;6.512;2023-07-28T15:00:12;28.20;98.20
60027;DHT22;45891;53.006;6.512;2023-07-28T15:02:38;28.40;98.10
60027;DHT22;45891;53.006;6.512;2023-07-28T15:05:05;28.90;97.50
60027;DHT22;45891;53.006;6.512;2023-07-28T15:07:31;28.70;97.70
60027;DHT22;45891;53.006;6.512;2023-07-28T15:09:57;28.70;98.10
60027;DHT22;45891;53.006;6.512;2023-07-28T15:12:23;27.90;98.40
60027;DHT22;45891;53.006;6.512;2023-07-28T15:14:49;27.60;99.40
60027;DHT22;45891;53.006;6.512;2023-07-28T15:17:15;28.10;99.10
60027;DHT22;45891;53.006;6.512;2023-07-28T15:19:41;28.30;99.00
60027;DHT22;45891;53.006;6.512;2023-07-28T15:22:08;28.70;98.90
60027;DHT22;45891;53.006;6.512;2023-07-28T15:24:34;28.00;99.00
60027;DHT22;45891;53.006;6.512;2023-07-28T15:27:00;28.40;98.80
60027;DHT22;45891;53.006;6.512;2023-07-28T15:29:26;28.70;98.10
60027;DHT22;45891;53.006;6.512;2023-07-28T15:31:52;28.90;98.60
60027;DHT22;45891;53.006;6.512;2023-07-28T15:34:19;28.90;98.10